Dodge City, KS

9:16 PM CST on March 03, 2015 (GMT -0600)
Summerlon | Change Station
CLOSE
Current Station
Personal Weather Station
Location: Dodge City, KS
Elevation: 2586 ft
Nearby Weather Stations
Active Advisory: Winter Weather Advisory

Elev 2586 ft 37.78 °N, 100.00 °W | Updated 35 seconds ago

Mostly Cloudy
Mostly Cloudy
27.8 °F
Feels Like 20 °F
N
7.0
Wind Variable Wind from NNE
Gusts 8.0 mph

Today
High -- | Low -- °F
--% Chance of Precip.
Yesterday
High -- | Low -- °F
Precip. -- in
7:09 AM 6:35 PM
Waxing Gibbous, 98% visible
Pressure 30.00 in
Visibility 10.0 miles
Clouds Clear
Windchill 20 °F
Dew Point 21 °F
Humidity 76%
Rainfall 0.02 in
Snow Depth Not available.
UV 0 out of 12
Pollen 3.90 out of 12
Air Quality Not available.
Flu Activity Not available.
METAR KDDC 040252Z AUTO 02009KT 10SM CLR M02/M07 A2996 RMK AO2 SLP159 T10221072 51030

More Conditions Fewer Conditions

Pressure 30.00 in
Visibility 10.0 miles
Clouds Clear
Windchill 20 °F
Dew Point 21 °F
Humidity 76%
Rainfall 0.02 in
Snow Depth Not available.
UV 0 out of 12
Pollen 3.90 out of 12
Air Quality Not available.
Flu Activity Not available.
METAR KDDC 040252Z AUTO 02009KT 10SM CLR M02/M07 A2996 RMK AO2 SLP159 T10221072 51030

More Conditions Fewer Conditions

10-Day Weather Forecast

Almanac

Astronomy

Mar. 03, 2015 Rise Set
Actual Time
Civil Twilight
Nautical Twilight
Astronomical Twilight
Moon
Length of Visible Light
Length of Day
Tomorrow will be .
, % of the Moon is Illuminated

Today's Extremes

State Highs State Lows

Community

WunderPhotos

Upload Photos

1,802,374 photos uploaded!

WunderBlogs® & News

Nearby

Air Quality

  Air Quality AQ Index Pollutant
Not available.

Snow Depth

Station Depth Elevation

Earthquake Activity

City Distance Mag. Time & Date
Minimum magnitude displayed is 2.5.

Coastal Water Temperatures

Place Temperature

Nearby Weather Stations

Winter Weather Advisory
Statement as of 1:11 PM CST on March 03, 2015

... Winter Weather Advisory in effect from midnight tonight to
6 PM CST Wednesday...

The National Weather Service in Dodge City has issued a Winter
Weather Advisory for snow... which is in effect from midnight
tonight to 6 PM CST Wednesday.

* Timing... most of the snow accumulation will be through the
overnight into Wednesday morning.

* Snow amounts... 2 to 5 inches across the Highway 56 corridor.

* Other impacts... snow covered roads causing hazardous travel
conditions.

Precautionary/preparedness actions...

A Winter Weather Advisory for snow means that periods of snow
will cause primarily travel difficulties. Be prepared for snow
covered roads and limited visibilities... and use caution while
driving.



Ksug